WIOO/PNK METAR and TAF weather

Enter ICAO airport designator
Station Type Date Time Source
WIOO METAR 2022/12/01 00:00 UTC NOAA

WIOO 010000Z 14002KT 6000 SCT008 24/24 Q1008 NOSIG


Station Type Date Time Source
WIOO Decoded METAR 2022/12/01 00:00 UTC NOAA

Pontianak / Supadio, Indonesia (WIOO) 00-09S 109-24E 3M
Nov 30, 2022 - 07:00 PM EST / 2022.12.01 0000 UTC
Wind: from the SE (140 degrees) at 2 MPH (2 KT):0
Visibility: 3 mile(s):0
Sky conditions: partly cloudy
Temperature: 75 F (24 C)
Dew Point: 75 F (24 C)
Relative Humidity: 100%
Pressure (altimeter): 29.77 in. Hg (1008 hPa)
ob: WIOO 010000Z 14002KT 6000 SCT008 24/24 Q1008 NOSIG
cycle: 0

Station Type Date Time Source
WIOO TAF 2014/03/26 00:51 UTC NOAA

TAF TAF WIOO 252300Z 2600/2624 10002KT 7000 SCT011
BECMG 2601/2603 08005KT 9999
TEMPO 2607/2610 15010KT 3000

Example: see airport list